Time;durP1;ratioP1;P1;durP2;ratioP2;P2;SDS_P1;SDS_P2;PMS_P1;PMS_P2;Temp;Humidity;BMP_temperature;BMP_pressure;BME280_temperature;BME280_humidity;BME280_pressure;Samples;Min_cycle;Max_cycle;Signal;HPM_P1;HPM_P2
2022/09/11 00:01:15;;;;;;;6.70;5.68;;;;;;;13.90;100.00;101464.41;4975655;28;20707;-48
2022/09/11 00:03:42;;;;;;;7.30;5.50;;;;;;;13.85;100.00;101469.13;4976707;28;20184;-48
2022/09/11 00:06:11;;;;;;;5.70;5.20;;;;;;;13.86;100.00;101455.56;4979178;28;20560;-48
2022/09/11 00:08:38;;;;;;;6.85;5.18;;;;;;;13.89;100.00;101471.63;4980729;28;20205;-48
2022/09/11 00:11:07;;;;;;;4.95;4.53;;;;;;;13.86;100.00;101470.84;4978766;28;20209;-48
2022/09/11 00:13:33;;;;;;;6.28;4.70;;;;;;;13.94;100.00;101474.97;4975464;28;20678;-48
2022/09/11 00:16:01;;;;;;;4.80;4.35;;;;;;;14.06;100.00;101479.00;4977738;28;20268;-48
2022/09/11 00:18:28;;;;;;;4.88;4.35;;;;;;;14.18;100.00;101467.69;4977813;28;20197;-49
2022/09/11 00:20:56;;;;;;;6.03;4.25;;;;;;;14.18;100.00;101472.19;4982603;28;20189;-47
2022/09/11 00:23:25;;;;;;;5.03;4.43;;;;;;;14.25;100.00;101462.03;4977769;28;20668;-47
2022/09/11 00:25:51;;;;;;;4.38;4.07;;;;;;;14.27;100.00;101465.53;4977128;28;20193;-48
2022/09/11 00:28:20;;;;;;;4.88;3.70;;;;;;;14.25;100.00;101465.59;4975116;28;20549;-47
2022/09/11 00:30:47;;;;;;;4.18;3.80;;;;;;;14.26;100.00;101461.97;4976143;28;20177;-48
2022/09/11 00:33:14;;;;;;;4.40;3.88;;;;;;;14.23;100.00;101462.09;4981486;28;20220;-48
2022/09/11 00:35:40;;;;;;;5.10;3.85;;;;;;;14.26;100.00;101471.88;4975785;28;20197;-47
2022/09/11 00:38:07;;;;;;;5.32;3.40;;;;;;;14.28;100.00;101459.19;4981415;28;20215;-47
2022/09/11 00:40:46;;;;;;;4.35;2.85;;;;;;;14.31;100.00;101454.53;4976389;28;20734;-48
2022/09/11 00:43:15;;;;;;;3.58;2.92;;;;;;;14.30;100.00;101458.19;4972005;28;20243;-47
2022/09/11 00:45:42;;;;;;;3.00;2.70;;;;;;;14.24;100.00;101455.78;4971395;28;20609;-47
2022/09/11 00:48:10;;;;;;;2.97;2.78;;;;;;;14.24;100.00;101447.69;4972499;28;20290;-49
2022/09/11 00:50:35;;;;;;;3.13;2.80;;;;;;;14.19;100.00;101450.59;4976916;28;20224;-48
2022/09/11 00:53:06;;;;;;;3.42;3.13;;;;;;;14.13;100.00;101447.28;4977401;28;20221;-47
2022/09/11 00:55:36;;;;;;;3.28;3.03;;;;;;;14.08;100.00;101447.47;4977235;28;20181;-48
2022/09/11 00:58:09;;;;;;;3.67;2.58;;;;;;;14.10;100.00;101456.38;4980493;28;20220;-46
2022/09/11 01:00:38;;;;;;;5.32;2.35;;;;;;;14.12;100.00;101450.91;4977592;28;20213;-48
2022/09/11 01:03:04;;;;;;;2.95;2.75;;;;;;;14.06;100.00;101448.47;4977564;28;20676;-48
2022/09/11 01:05:33;;;;;;;2.70;2.33;;;;;;;14.12;100.00;101456.28;4981828;28;20257;-49
2022/09/11 01:08:01;;;;;;;2.60;2.40;;;;;;;14.04;100.00;101451.25;4976667;28;20217;-46
2022/09/11 01:10:38;;;;;;;3.35;2.70;;;;;;;13.96;100.00;101451.56;4977406;28;20193;-48
2022/09/11 01:13:09;;;;;;;3.75;2.15;;;;;;;13.99;100.00;101448.75;4984489;28;20185;-48
2022/09/11 01:15:46;;;;;;;2.58;2.17;;;;;;;13.91;100.00;101458.09;4976505;28;20271;-49
2022/09/11 01:18:23;;;;;;;2.17;2.08;;;;;;;13.90;100.00;101450.94;4977635;28;20197;-48
2022/09/11 01:20:51;;;;;;;2.55;2.20;;;;;;;13.86;100.00;101455.56;4978611;28;20711;-47
2022/09/11 01:23:23;;;;;;;3.40;2.30;;;;;;;13.76;100.00;101459.59;4979591;28;20649;-46
2022/09/11 01:26:33;;;;;;;3.65;2.35;;;;;;;13.83;100.00;101465.63;4976393;28;20680;-47
2022/09/11 01:29:02;;;;;;;2.60;2.38;;;;;;;13.81;100.00;101462.97;4951484;28;20220;-48
2022/09/11 01:31:33;;;;;;;2.67;2.40;;;;;;;13.87;100.00;101467.25;4981888;28;20204;-48
2022/09/11 01:34:11;;;;;;;2.42;2.22;;;;;;;13.98;100.00;101473.06;4987716;28;20189;-46
2022/09/11 01:36:44;;;;;;;2.45;2.30;;;;;;;14.05;100.00;101470.97;4979435;28;20222;-48
2022/09/11 01:39:12;;;;;;;2.70;2.00;;;;;;;14.28;100.00;101469.97;4977446;28;20188;-47
2022/09/11 01:41:55;;;;;;;3.03;2.00;;;;;;;14.40;100.00;101475.69;4979662;28;20575;-47
2022/09/11 01:44:33;;;;;;;2.95;1.77;;;;;;;14.55;100.00;101476.00;4981686;28;20186;-46
2022/09/11 01:47:02;;;;;;;4.03;2.13;;;;;;;14.50;100.00;101476.19;4978656;28;20275;-47
2022/09/11 01:49:37;;;;;;;1.80;1.60;;;;;;;14.58;100.00;101474.06;4973991;28;20639;-46
2022/09/11 01:52:09;;;;;;;2.75;1.92;;;;;;;14.60;100.00;101480.25;4976267;28;20192;-47
2022/09/11 01:54:41;;;;;;;2.38;1.38;;;;;;;14.63;100.00;101474.72;4980759;28;20181;-47
2022/09/11 01:57:25;;;;;;;1.70;1.25;;;;;;;14.62;100.00;101486.44;4955891;28;20205;-48
2022/09/11 01:59:58;;;;;;;3.95;1.30;;;;;;;14.66;100.00;101480.94;4980820;28;20181;-45
2022/09/11 02:02:35;;;;;;;1.98;1.40;;;;;;;14.70;100.00;101486.13;4979209;28;20194;-44
2022/09/11 02:05:22;;;;;;;1.08;1.08;;;;;;;14.68;100.00;101477.22;4980387;28;20253;-45
2022/09/11 02:08:25;;;;;;;4.75;1.55;;;;;;;14.70;100.00;101494.22;4978970;28;20221;-47
2022/09/11 02:11:02;;;;;;;3.70;1.23;;;;;;;14.74;100.00;101476.06;4976257;28;20749;-48
2022/09/11 02:13:30;;;;;;;2.08;1.30;;;;;;;14.75;100.00;101492.16;4984724;28;20189;-44
2022/09/11 02:16:12;;;;;;;1.23;1.10;;;;;;;14.83;100.00;101486.44;4975087;28;20222;-50
2022/09/11 02:18:53;;;;;;;1.00;1.00;;;;;;;14.83;100.00;101475.66;4989869;28;20189;-44
2022/09/11 02:21:20;;;;;;;1.15;1.10;;;;;;;14.86;100.00;101471.94;4983866;28;20606;-48
2022/09/11 02:23:46;;;;;;;2.55;1.30;;;;;;;14.80;100.00;101473.97;4986679;28;20193;-44
2022/09/11 02:26:17;;;;;;;1.08;0.88;;;;;;;14.78;100.00;101470.47;4980677;28;20186;-44
2022/09/11 02:28:43;;;;;;;2.13;0.95;;;;;;;14.75;100.00;101473.28;4986773;28;20624;-47
2022/09/11 02:31:08;;;;;;;1.10;1.00;;;;;;;14.72;100.00;101489.63;4986485;28;20230;-43
2022/09/11 02:33:36;;;;;;;4.57;1.00;;;;;;;14.66;100.00;101479.09;4980857;28;20530;-43
2022/09/11 02:36:31;;;;;;;0.93;0.93;;;;;;;14.66;100.00;101473.72;4976354;28;20194;-45
2022/09/11 02:39:15;;;;;;;1.40;1.00;;;;;;;14.62;100.00;101486.44;4958500;28;20225;-45
2022/09/11 02:41:57;;;;;;;1.15;0.93;;;;;;;14.59;100.00;101485.72;4993758;28;20202;-42
2022/09/11 02:44:36;;;;;;;0.90;0.90;;;;;;;14.56;100.00;101486.75;4980700;28;20196;-48
2022/09/11 02:47:34;;;;;;;1.48;0.93;;;;;;;14.56;100.00;101477.75;4982445;28;20213;-47
2022/09/11 02:50:36;;;;;;;3.28;0.90;;;;;;;14.56;100.00;101477.75;4978773;28;20198;-46
2022/09/11 02:53:11;;;;;;;2.28;1.33;;;;;;;14.58;100.00;101474.06;4980506;28;20719;-47
2022/09/11 02:55:53;;;;;;;1.88;0.95;;;;;;;14.58;100.00;101475.88;4989030;28;20283;-46
2022/09/11 02:58:28;;;;;;;2.47;1.27;;;;;;;14.54;100.00;101480.50;4971420;28;20305;-47
2022/09/11 03:00:59;;;;;;;2.15;1.00;;;;;;;14.53;100.00;101476.03;4980804;28;20626;-47
2022/09/11 03:03:25;;;;;;;1.00;0.80;;;;;;;14.54;100.00;101476.91;4997254;28;20189;-47
2022/09/11 03:05:51;;;;;;;1.88;1.00;;;;;;;14.52;100.00;101477.00;4979505;28;20173;-46
2022/09/11 03:08:17;;;;;;;1.67;0.95;;;;;;;14.50;100.00;101478.03;4978510;28;20261;-48
2022/09/11 03:10:45;;;;;;;1.40;1.20;;;;;;;14.45;100.00;101480.03;4974518;28;20666;-47
2022/09/11 03:13:13;;;;;;;1.33;1.05;;;;;;;14.44;100.00;101479.16;4982279;28;20235;-47
2022/09/11 03:15:42;;;;;;;2.00;0.93;;;;;;;14.42;100.00;101483.72;4977944;28;20241;-46
2022/09/11 03:18:09;;;;;;;2.55;0.90;;;;;;;14.40;100.00;101478.41;4982449;28;20209;-47
2022/09/11 03:20:35;;;;;;;1.92;1.10;;;;;;;14.42;100.00;101479.22;4962279;28;20186;-48
2022/09/11 03:23:00;;;;;;;1.73;0.90;;;;;;;14.39;100.00;101490.13;4985240;28;20653;-46
2022/09/11 03:25:27;;;;;;;3.50;1.20;;;;;;;14.38;100.00;101488.38;4985091;28;20170;-46
2022/09/11 03:27:54;;;;;;;4.07;0.80;;;;;;;14.47;100.00;101500.56;4981668;28;20220;-48
2022/09/11 03:30:20;;;;;;;1.30;0.88;;;;;;;14.35;100.00;101495.75;4965123;28;20206;-48
2022/09/11 03:32:47;;;;;;;2.78;1.00;;;;;;;14.32;100.00;101496.75;4977546;28;20204;-49
2022/09/11 03:35:13;;;;;;;1.15;0.90;;;;;;;14.28;100.00;101492.44;4978144;28;20273;-49
2022/09/11 03:37:38;;;;;;;0.93;0.90;;;;;;;14.30;100.00;101500.44;4980219;28;20209;-48
2022/09/11 03:40:04;;;;;;;2.53;1.30;;;;;;;14.36;100.00;101509.13;4981588;28;20190;-48
2022/09/11 03:42:31;;;;;;;3.42;1.65;;;;;;;14.35;100.00;101493.91;4974240;28;20190;-47
2022/09/11 03:44:57;;;;;;;1.08;1.05;;;;;;;14.38;100.00;101501.84;4977991;28;20209;-47
2022/09/11 03:47:22;;;;;;;2.35;1.42;;;;;;;14.37;100.00;101510.03;4975659;28;20206;-46
2022/09/11 03:49:48;;;;;;;1.95;1.52;;;;;;;14.34;100.00;101505.66;4979261;28;20300;-49
2022/09/11 03:52:15;;;;;;;2.83;2.05;;;;;;;14.31;100.00;101515.69;4981292;28;20278;-46
2022/09/11 03:54:41;;;;;;;2.30;2.15;;;;;;;14.31;100.00;101521.94;4979988;28;20224;-47
2022/09/11 03:57:08;;;;;;;4.65;2.25;;;;;;;14.31;100.00;101515.69;4975778;28;20206;-49
2022/09/11 03:59:38;;;;;;;2.67;2.45;;;;;;;14.31;100.00;101519.25;4982918;28;20182;-48
2022/09/11 04:02:04;;;;;;;3.13;2.42;;;;;;;14.34;100.00;101523.63;4977873;28;20676;-47
2022/09/11 04:04:29;;;;;;;2.70;2.50;;;;;;;14.30;100.00;101536.38;4972099;28;20186;-47
2022/09/11 04:06:55;;;;;;;6.72;2.97;;;;;;;14.26;100.00;101517.69;4979160;28;20228;-47
2022/09/11 04:09:21;;;;;;;4.15;2.70;;;;;;;14.20;100.00;101527.78;4979322;28;20314;-47
2022/09/11 04:11:49;;;;;;;4.97;3.15;;;;;;;14.17;100.00;101530.63;4980821;28;20190;-48
2022/09/11 04:14:23;;;;;;;6.20;3.58;;;;;;;14.12;100.00;101513.75;4979196;28;20173;-46
2022/09/11 04:16:50;;;;;;;6.70;3.33;;;;;;;14.17;100.00;101524.34;4985687;28;20217;-46
2022/09/11 04:19:17;;;;;;;4.45;4.03;;;;;;;14.12;100.00;101520.97;4979641;28;20174;-47
2022/09/11 04:21:43;;;;;;;4.55;4.20;;;;;;;14.09;100.00;101527.34;4979970;28;20188;-47
2022/09/11 04:24:09;;;;;;;4.78;3.55;;;;;;;14.14;100.00;101524.47;4977264;28;20170;-48
2022/09/11 04:26:35;;;;;;;4.80;4.40;;;;;;;14.08;100.00;101530.09;4975035;28;20698;-48
2022/09/11 04:29:07;;;;;;;4.07;3.78;;;;;;;14.11;100.00;101527.31;4979510;28;20202;-48
2022/09/11 04:31:35;;;;;;;4.20;3.90;;;;;;;14.08;100.00;101530.09;4979638;28;20216;-48
2022/09/11 04:34:01;;;;;;;3.60;3.30;;;;;;;14.10;100.00;101530.94;4985291;28;20550;-47
2022/09/11 04:36:30;;;;;;;4.22;3.83;;;;;;;14.05;100.00;101539.19;4977825;28;20182;-47
2022/09/11 04:38:58;;;;;;;5.03;4.47;;;;;;;14.01;100.00;101540.25;4982042;28;20189;-48
2022/09/11 04:41:25;;;;;;;4.57;3.80;;;;;;;14.06;100.00;101537.38;4993578;28;20189;-47
2022/09/11 04:43:57;;;;;;;5.75;3.28;;;;;;;14.15;100.00;101534.31;4978479;28;20641;-48
2022/09/11 04:46:23;;;;;;;3.80;3.50;;;;;;;14.10;100.00;101541.69;4978639;28;20562;-48
2022/09/11 04:48:51;;;;;;;6.07;3.95;;;;;;;14.00;100.00;101539.41;4977567;28;20288;-48
2022/09/11 04:51:24;;;;;;;3.97;3.65;;;;;;;13.94;100.00;101531.56;4984833;28;20192;-48
2022/09/11 04:53:51;;;;;;;5.45;4.03;;;;;;;13.93;100.00;101532.50;4970466;28;20206;-48
2022/09/11 04:56:19;;;;;;;4.13;3.70;;;;;;;13.93;100.00;101531.66;4965390;28;20182;-46
2022/09/11 04:58:51;;;;;;;8.40;4.03;;;;;;;13.89;100.00;101532.72;4982331;28;20657;-47
2022/09/11 05:01:16;;;;;;;4.28;3.60;;;;;;;13.94;100.00;101539.63;4969820;28;20189;-48
2022/09/11 05:03:47;;;;;;;6.18;4.20;;;;;;;13.89;100.00;101547.03;4985676;28;20200;-48
2022/09/11 05:06:15;;;;;;;3.67;3.38;;;;;;;13.97;100.00;101542.22;4976419;28;20204;-47
2022/09/11 05:08:44;;;;;;;4.68;4.38;;;;;;;13.93;100.00;101554.06;4979517;28;20292;-45
2022/09/11 05:11:12;;;;;;;4.25;3.90;;;;;;;13.90;100.00;101543.41;4971351;28;20193;-45
2022/09/11 05:13:38;;;;;;;5.05;4.10;;;;;;;13.89;100.00;101549.75;4976428;28;20845;-47
2022/09/11 05:16:13;;;;;;;5.07;3.63;;;;;;;13.86;100.00;101557.91;4975455;28;20692;-46
2022/09/11 05:18:40;;;;;;;4.85;4.35;;;;;;;13.84;100.00;101550.84;4975816;28;20197;-46
2022/09/11 05:21:11;;;;;;;5.30;4.80;;;;;;;13.80;100.00;101550.13;4984460;28;20205;-47
2022/09/11 05:23:38;;;;;;;8.32;5.22;;;;;;;13.81;100.00;101557.25;4976570;28;20677;-46
2022/09/11 05:26:05;;;;;;;5.85;5.03;;;;;;;13.78;100.00;101562.75;4979766;28;20185;-48
2022/09/11 05:28:32;;;;;;;5.72;4.70;;;;;;;13.81;100.00;101565.31;4974186;28;20221;-43
2022/09/11 05:30:59;;;;;;;5.20;4.20;;;;;;;13.87;100.00;101558.81;4985101;28;20185;-43
2022/09/11 05:33:26;;;;;;;5.05;4.65;;;;;;;13.78;100.00;101562.75;4984907;28;20186;-41
2022/09/11 05:35:53;;;;;;;4.57;4.07;;;;;;;13.83;100.00;101562.56;4976490;28;20262;-42
2022/09/11 05:38:21;;;;;;;4.93;4.43;;;;;;;13.83;100.00;101568.84;4977406;28;20232;-44
2022/09/11 05:40:50;;;;;;;6.68;4.55;;;;;;;13.83;100.00;101568.84;4987079;28;20195;-43
2022/09/11 05:43:18;;;;;;;6.63;5.72;;;;;;;13.81;100.00;101573.41;4983832;28;20213;-42
2022/09/11 05:45:56;;;;;;;6.28;5.53;;;;;;;13.79;100.00;101583.34;4981252;28;20193;-43
2022/09/11 05:48:27;;;;;;;6.53;5.93;;;;;;;13.66;100.00;101582.97;4985008;28;20646;-43
2022/09/11 05:50:58;;;;;;;6.68;5.97;;;;;;;13.69;100.00;101571.22;4980115;28;20185;-44
2022/09/11 05:53:25;;;;;;;8.82;6.38;;;;;;;13.71;100.00;101585.47;4974634;28;20272;-45
2022/09/11 05:55:59;;;;;;;8.23;7.45;;;;;;;13.74;100.00;101593.44;4978601;28;20186;-44
2022/09/11 05:58:30;;;;;;;8.07;7.25;;;;;;;13.79;100.00;101584.22;4972155;28;20213;-44
2022/09/11 06:01:13;;;;;;;7.55;6.40;;;;;;;13.88;100.00;101587.50;4975434;28;20712;-43
2022/09/11 06:03:41;;;;;;;8.50;7.63;;;;;;;13.84;100.00;101593.94;4986463;28;20185;-44
2022/09/11 06:06:10;;;;;;;10.32;9.13;;;;;;;13.77;100.00;101593.31;4976310;28;20186;-44
2022/09/11 06:08:38;;;;;;;11.65;9.23;;;;;;;13.83;100.00;101603.84;4975374;28;20300;-43
2022/09/11 06:11:06;;;;;;;9.70;8.88;;;;;;;13.82;100.00;101588.66;4976099;28;20268;-43
2022/09/11 06:13:38;;;;;;;11.48;10.38;;;;;;;13.85;100.00;101603.81;4985188;28;20190;-44
2022/09/11 06:16:08;;;;;;;9.52;8.73;;;;;;;13.96;100.00;101591.66;4979507;28;20190;-48
2022/09/11 06:18:34;;;;;;;10.50;9.43;;;;;;;13.97;100.00;101597.91;4976815;28;20220;-45
2022/09/11 06:21:05;;;;;;;10.23;9.43;;;;;;;13.91;100.00;101599.03;4973695;28;20557;-45
2022/09/11 06:23:36;;;;;;;13.32;10.13;;;;;;;13.94;100.00;101596.22;4969946;28;20660;-44
2022/09/11 06:26:09;;;;;;;10.75;9.85;;;;;;;14.00;100.00;101595.97;4968767;28;20189;-44
2022/09/11 06:28:38;;;;;;;11.30;9.65;;;;;;;13.99;100.00;101602.31;4970915;28;20308;-43
2022/09/11 06:31:11;;;;;;;11.30;10.38;;;;;;;13.97;100.00;101604.19;4977974;28;20673;-43
2022/09/11 06:33:39;;;;;;;10.43;9.52;;;;;;;14.00;100.00;101601.38;4980511;28;20224;-42
2022/09/11 06:36:07;;;;;;;9.00;8.20;;;;;;;14.13;100.00;101604.44;4975626;28;20186;-43
2022/09/11 06:38:33;;;;;;;11.30;9.65;;;;;;;14.09;100.00;101618.97;4981724;28;20345;-43
2022/09/11 06:41:03;;;;;;;10.98;9.98;;;;;;;14.04;100.00;101612.91;4998083;28;20181;-43
2022/09/11 06:43:32;;;;;;;11.48;10.43;;;;;;;14.06;100.00;101611.03;4984029;28;20189;-43
2022/09/11 06:46:10;;;;;;;22.90;20.90;;;;;;;14.16;100.00;101619.59;4980318;28;20246;-44
2022/09/11 06:48:36;;;;;;;16.58;15.05;;;;;;;14.17;100.00;101622.25;4986575;28;20217;-43
2022/09/11 06:51:06;;;;;;;11.73;10.77;;;;;;;14.19;100.00;101608.69;4993042;28;20184;-43
2022/09/11 06:53:33;;;;;;;12.75;10.00;;;;;;;14.17;100.00;101618.69;4972142;28;20202;-43
2022/09/11 06:56:06;;;;;;;11.52;10.40;;;;;;;14.19;100.00;101617.69;4982100;28;20668;-45
2022/09/11 06:58:33;;;;;;;9.80;8.20;;;;;;;14.25;100.00;101613.84;4983473;28;20766;-43
2022/09/11 07:01:08;;;;;;;16.08;9.63;;;;;;;14.27;100.00;101616.47;4981251;28;20212;-43
2022/09/11 07:03:34;;;;;;;10.63;9.52;;;;;;;14.31;100.00;101610.91;4975791;28;20203;-44
2022/09/11 07:06:05;;;;;;;11.20;9.02;;;;;;;14.31;100.00;101616.28;4978689;28;20182;-44
2022/09/11 07:08:30;;;;;;;9.35;8.50;;;;;;;14.35;100.00;101609.81;4975849;28;20562;-45
2022/09/11 07:11:02;;;;;;;10.02;8.95;;;;;;;14.39;100.00;101611.47;4983391;28;20189;-43
2022/09/11 07:13:31;;;;;;;9.50;8.50;;;;;;;14.48;100.00;101612.03;4977568;28;20198;-43
2022/09/11 07:16:02;;;;;;;10.23;9.27;;;;;;;14.43;100.00;101614.91;4979713;28;20203;-44
2022/09/11 07:18:35;;;;;;;10.80;8.90;;;;;;;14.42;100.00;101613.16;4980010;28;20233;-44
2022/09/11 07:21:10;;;;;;;8.73;7.82;;;;;;;14.45;100.00;101618.41;4970650;28;20654;-44
2022/09/11 07:23:38;;;;;;;8.45;7.65;;;;;;;14.50;100.00;101629.03;4982058;28;20200;-42
2022/09/11 07:26:06;;;;;;;8.48;7.35;;;;;;;14.47;100.00;101623.72;4994699;28;20578;-43
2022/09/11 07:28:33;;;;;;;9.35;8.38;;;;;;;14.46;100.00;101628.25;4981688;28;20988;-43
2022/09/11 07:31:03;;;;;;;10.35;9.43;;;;;;;14.48;100.00;101625.50;4979252;28;20679;-44
2022/09/11 07:33:29;;;;;;;10.50;8.18;;;;;;;14.56;100.00;101617.97;4988741;28;20197;-43
2022/09/11 07:35:59;;;;;;;8.20;7.28;;;;;;;14.60;100.00;101628.56;4975481;28;20189;-43
2022/09/11 07:38:28;;;;;;;6.93;6.32;;;;;;;14.63;100.00;101627.59;4981574;28;20214;-43
2022/09/11 07:40:54;;;;;;;7.90;5.85;;;;;;;14.66;100.00;101623.88;4979386;28;20662;-42
2022/09/11 07:43:19;;;;;;;6.20;5.60;;;;;;;14.65;100.00;101625.72;4980559;28;20193;-42
2022/09/11 07:45:45;;;;;;;8.07;5.60;;;;;;;14.78;100.00;101628.72;4979507;28;20197;-43
2022/09/11 07:48:11;;;;;;;6.43;5.82;;;;;;;14.79;100.00;101633.19;4989689;28;20766;-44
2022/09/11 07:50:38;;;;;;;7.65;5.60;;;;;;;14.73;100.00;101634.31;4975166;28;20205;-43
2022/09/11 07:53:04;;;;;;;6.03;5.18;;;;;;;14.91;100.00;101643.47;4978986;28;20241;-43
2022/09/11 07:55:33;;;;;;;5.43;4.75;;;;;;;14.89;100.00;101641.75;4978286;28;20178;-41
2022/09/11 07:57:58;;;;;;;6.55;5.13;;;;;;;14.88;100.00;101638.19;4976297;28;20217;-44
2022/09/11 08:00:24;;;;;;;4.28;3.90;;;;;;;14.95;100.00;101636.09;4975061;28;20208;-44
2022/09/11 08:03:03;;;;;;;4.55;3.70;;;;;;;14.93;100.00;101651.47;4984369;28;20197;-43
2022/09/11 08:05:33;;;;;;;3.50;3.20;;;;;;;14.89;100.00;101644.47;4970414;28;20181;-42
2022/09/11 08:07:59;;;;;;;5.32;3.05;;;;;;;15.05;100.00;101648.25;4981270;28;20267;-42
2022/09/11 08:10:25;;;;;;;3.47;1.90;;;;;;;15.10;100.00;101653.44;4983446;28;20748;-42
2022/09/11 08:12:51;;;;;;;1.58;1.30;;;;;;;15.20;100.00;101644.00;4977531;28;20190;-42
2022/09/11 08:15:20;;;;;;;2.60;1.13;;;;;;;15.24;100.00;101659.13;4980891;28;20177;-42
2022/09/11 08:17:47;;;;;;;2.10;1.08;;;;;;;15.29;100.00;101656.22;4978793;28;20260;-42
2022/09/11 08:20:12;;;;;;;1.58;1.17;;;;;;;15.36;100.00;101663.09;4979609;28;20186;-42
2022/09/11 08:22:40;;;;;;;2.92;1.40;;;;;;;15.39;100.00;101661.16;4980702;28;20237;-42
2022/09/11 08:25:06;;;;;;;1.58;1.38;;;;;;;15.51;100.00;101656.13;4978230;28;20280;-42
2022/09/11 08:27:32;;;;;;;2.15;1.25;;;;;;;15.69;100.00;101657.97;4987313;28;20680;-42
2022/09/11 08:29:58;;;;;;;1.15;1.10;;;;;;;16.18;100.00;101661.09;4981087;28;20213;-42
2022/09/11 08:32:26;;;;;;;4.00;1.50;;;;;;;16.28;100.00;101661.50;4979684;28;20506;-42
2022/09/11 08:34:52;;;;;;;1.85;1.10;;;;;;;16.47;100.00;101662.34;4974769;28;20210;-43
2022/09/11 08:37:19;;;;;;;2.47;1.25;;;;;;;16.46;100.00;101671.44;4987470;28;20715;-41
2022/09/11 08:39:45;;;;;;;3.05;1.40;;;;;;;16.47;100.00;101666.91;4978446;28;20209;-42
2022/09/11 08:42:14;;;;;;;1.40;0.98;;;;;;;16.07;100.00;101679.66;4980610;28;20216;-42
2022/09/11 08:44:49;;;;;;;1.00;1.00;;;;;;;16.19;100.00;101679.06;4980207;28;20198;-42
2022/09/11 08:47:26;;;;;;;1.10;1.00;;;;;;;16.13;100.00;101675.78;4970982;28;20637;-42
2022/09/11 08:50:00;;;;;;;2.65;1.10;;;;;;;16.23;100.00;101672.56;4976557;28;20220;-42
2022/09/11 08:52:28;;;;;;;1.02;1.00;;;;;;;16.02;100.00;101678.97;4976379;28;20676;-41
2022/09/11 08:54:58;;;;;;;1.10;1.00;;;;;;;16.03;100.00;101678.91;4981929;28;20224;-41
2022/09/11 08:57:45;;;;;;;2.63;1.00;;;;;;;16.21;100.00;101684.41;4981507;28;20213;-42
2022/09/11 09:00:22;;;;;;;1.35;1.13;;;;;;;16.42;100.00;101688.78;4976465;28;20611;-42
2022/09/11 09:03:13;;;;;;;2.88;1.30;;;;;;;16.35;99.74;101681.88;4987780;28;20217;-43
2022/09/11 09:05:53;;;;;;;2.83;1.42;;;;;;;16.32;99.59;101684.75;4992428;28;20209;-44
2022/09/11 09:08:43;;;;;;;1.27;1.17;;;;;;;16.41;98.98;101692.41;4980097;28;20217;-42
2022/09/11 09:11:49;;;;;;;1.23;1.13;;;;;;;16.64;98.53;101693.13;4985658;28;20213;-43
2022/09/11 09:14:34;;;;;;;1.60;1.30;;;;;;;17.03;98.11;101683.94;4919032;29;20191;-42
2022/09/11 09:17:14;;;;;;;2.50;1.38;;;;;;;17.03;97.47;101681.22;4972921;28;20642;-43
2022/09/11 09:19:45;;;;;;;2.85;1.60;;;;;;;16.82;96.72;101678.69;4980369;28;20189;-41
2022/09/11 09:22:21;;;;;;;2.72;1.40;;;;;;;16.73;96.44;101683.66;4983942;28;20189;-42
2022/09/11 09:24:52;;;;;;;1.30;1.20;;;;;;;17.03;97.00;101689.34;4973572;28;20189;-40
2022/09/11 09:27:24;;;;;;;3.38;1.20;;;;;;;17.18;96.51;101687.69;4979857;28;20561;-42
2022/09/11 09:29:55;;;;;;;2.25;1.58;;;;;;;17.22;94.44;101686.56;4985865;28;20212;-42
2022/09/11 09:32:53;;;;;;;2.15;1.40;;;;;;;17.39;94.11;101691.97;4981782;28;20264;-41
2022/09/11 09:35:25;;;;;;;5.85;1.80;;;;;;;17.44;94.03;101689.03;4981374;28;20272;-43
2022/09/11 09:37:53;;;;;;;3.08;1.30;;;;;;;17.49;94.34;101689.66;4989544;28;20229;-41
2022/09/11 09:40:19;;;;;;;1.67;1.30;;;;;;;17.43;93.64;101693.56;4979070;28;20192;-42
2022/09/11 09:43:06;;;;;;;1.98;1.40;;;;;;;17.38;94.40;101694.75;4987294;28;20192;-41
2022/09/11 09:46:00;;;;;;;2.22;1.60;;;;;;;17.10;94.42;101698.94;4978799;28;20201;-41
2022/09/11 09:48:28;;;;;;;2.67;1.45;;;;;;;16.94;94.08;101695.25;4994186;28;20217;-42
2022/09/11 09:50:53;;;;;;;1.92;1.33;;;;;;;17.16;94.48;101704.00;4986938;28;20246;-41
2022/09/11 09:53:42;;;;;;;1.98;1.20;;;;;;;17.40;93.77;101699.13;4976963;28;20812;-41
2022/09/11 09:56:13;;;;;;;1.20;1.10;;;;;;;17.44;92.58;101695.31;4978457;28;20723;-46
2022/09/11 09:58:47;;;;;;;1.40;1.30;;;;;;;17.42;92.40;101697.22;4977790;28;20202;-46
2022/09/11 10:01:52;;;;;;;1.88;1.05;;;;;;;17.30;91.56;101698.75;4978196;28;20710;-46
2022/09/11 10:04:21;;;;;;;1.52;1.35;;;;;;;17.32;91.01;101708.63;4936384;29;20194;-45
2022/09/11 10:06:52;;;;;;;3.55;1.35;;;;;;;17.54;91.39;101714.69;4929130;29;20283;-46
2022/09/11 10:09:23;;;;;;;1.13;1.02;;;;;;;17.63;90.61;101705.19;4953695;28;20636;-47
2022/09/11 10:11:55;;;;;;;1.20;1.10;;;;;;;17.50;90.68;101710.38;4979724;28;20205;-46
2022/09/11 10:14:22;;;;;;;2.33;1.20;;;;;;;17.50;91.72;101710.38;4976178;28;20182;-46
2022/09/11 10:16:52;;;;;;;1.77;1.33;;;;;;;17.54;90.79;101722.81;4978762;28;20234;-46
2022/09/11 10:19:42;;;;;;;1.63;1.40;;;;;;;17.24;91.66;101714.47;4981576;28;20232;-45
2022/09/11 10:22:31;;;;;;;2.10;1.45;;;;;;;17.41;91.76;101716.28;4984046;28;20192;-46
2022/09/11 10:25:00;;;;;;;3.40;1.30;;;;;;;17.42;90.80;101720.75;4973353;28;20233;-45
2022/09/11 10:27:29;;;;;;;1.85;1.75;;;;;;;17.15;90.85;101718.53;4982587;28;20512;-46
2022/09/11 10:29:56;;;;;;;2.83;1.25;;;;;;;17.39;90.49;101716.38;4978439;28;20225;-47
2022/09/11 10:32:23;;;;;;;2.50;1.15;;;;;;;17.35;91.30;101714.78;4976327;28;20661;-46
2022/09/11 10:34:51;;;;;;;1.58;1.48;;;;;;;17.01;92.71;101710.22;4987739;28;20251;-45
2022/09/11 10:37:24;;;;;;;1.48;1.30;;;;;;;16.91;93.37;101711.66;4982305;28;20214;-44
2022/09/11 10:39:50;;;;;;;2.83;1.55;;;;;;;16.75;93.95;101719.63;4978670;28;20594;-45
2022/09/11 10:42:27;;;;;;;1.30;1.20;;;;;;;16.79;94.00;101730.25;4979581;28;20200;-46
2022/09/11 10:45:04;;;;;;;5.43;1.63;;;;;;;16.79;94.44;101722.13;4981427;28;20637;-44
2022/09/11 10:47:31;;;;;;;2.22;1.42;;;;;;;16.69;94.92;101726.22;4981056;28;20210;-46
2022/09/11 10:50:15;;;;;;;2.45;1.70;;;;;;;16.56;95.51;101730.50;4977706;28;20190;-45
2022/09/11 10:53:06;;;;;;;2.85;1.50;;;;;;;16.50;95.18;101719.97;4976850;28;20579;-45
2022/09/11 10:55:37;;;;;;;2.92;1.25;;;;;;;16.51;95.63;101729.81;4978775;28;20181;-44
2022/09/11 10:58:11;;;;;;;1.52;1.23;;;;;;;16.58;96.11;101725.88;4981704;28;20211;-45
2022/09/11 11:00:37;;;;;;;2.50;1.63;;;;;;;16.60;96.42;101719.44;4983287;28;20177;-46
2022/09/11 11:03:05;;;;;;;2.90;1.65;;;;;;;16.71;95.90;101723.47;4984972;28;20209;-45
2022/09/11 11:06:18;;;;;;;3.47;1.35;;;;;;;16.85;95.58;101729.94;4971611;28;20178;-45
2022/09/11 11:09:05;;;;;;;2.40;1.40;;;;;;;17.14;94.00;101735.69;4980366;28;20603;-45
2022/09/11 11:11:31;;;;;;;2.25;1.50;;;;;;;17.16;93.27;101735.63;4977202;28;20186;-45
2022/09/11 11:14:24;;;;;;;4.30;1.70;;;;;;;16.75;93.53;101735.84;4982033;28;20576;-45
2022/09/11 11:17:03;;;;;;;1.63;1.40;;;;;;;16.69;93.26;101740.63;4978295;28;20763;-46
2022/09/11 11:19:50;;;;;;;0.90;0.90;;;;;;;16.63;93.38;101729.22;4978878;28;20217;-45
2022/09/11 11:22:27;;;;;;;2.17;1.20;;;;;;;16.62;93.14;101730.19;4980193;28;20255;-46
2022/09/11 11:25:13;;;;;;;2.47;1.40;;;;;;;16.48;92.64;101725.44;4980573;28;20296;-47
2022/09/11 11:28:04;;;;;;;2.95;1.20;;;;;;;16.68;92.90;101721.75;4979002;28;20201;-46
2022/09/11 11:30:37;;;;;;;1.33;1.23;;;;;;;16.60;92.78;101730.25;4980267;28;20689;-45
2022/09/11 11:33:11;;;;;;;2.47;1.63;;;;;;;16.60;92.66;101726.69;4979179;28;20197;-45
2022/09/11 11:35:59;;;;;;;1.77;1.30;;;;;;;16.69;92.94;101727.09;4976967;28;20205;-46
2022/09/11 11:38:40;;;;;;;2.58;1.20;;;;;;;16.73;92.56;101724.25;4983038;28;20213;-44